Time;durP1;ratioP1;P1;durP2;ratioP2;P2;SDS_P1;SDS_P2;PMS_P1;PMS_P2;Temp;Humidity;BMP_temperature;BMP_pressure;BME280_temperature;BME280_humidity;BME280_pressure;Samples;Min_cycle;Max_cycle;Signal;HPM_P1;HPM_P2
2021/12/25 00:13:31;;;;;;;11.37;5.00;;;;;;;-3.69;89.20;99068.34;714792;1199;113900;-78
2021/12/25 00:43:43;;;;;;;8.68;3.10;;;;;;;-4.17;87.93;99121.81;714626;1176;113682;-78
2021/12/25 00:58:46;;;;;;;20.25;5.95;;;;;;;-4.36;86.88;99144.88;714602;1200;113796;-78
2021/12/25 01:13:55;;;;;;;13.03;3.23;;;;;;;-4.48;86.05;99176.98;714671;1202;114216;-76
2021/12/25 01:59:30;;;;;;;6.80;2.68;;;;;;;-4.71;84.72;99259.86;713879;1199;113847;-75
2021/12/25 02:14:36;;;;;;;7.85;2.70;;;;;;;-4.94;85.37;99287.23;713929;1199;114515;-76
2021/12/25 02:29:39;;;;;;;7.00;2.45;;;;;;;-5.18;84.34;99318.00;713952;1177;113626;-75
2021/12/25 02:44:42;;;;;;;7.50;1.70;;;;;;;-5.42;84.83;99342.79;713860;1200;114141;-75
2021/12/25 02:59:44;;;;;;;8.33;3.25;;;;;;;-5.44;84.84;99364.19;713834;1199;114708;-76
2021/12/25 03:15:04;;;;;;;3.98;1.93;;;;;;;-5.44;84.99;99376.97;713872;1178;113655;-75
2021/12/25 03:30:09;;;;;;;9.73;3.27;;;;;;;-5.60;84.85;99385.19;713916;1200;113611;-77
2021/12/25 03:45:12;;;;;;;3.13;2.13;;;;;;;-5.87;84.87;99397.23;714005;1199;114101;-75
2021/12/25 04:00:16;;;;;;;6.48;2.75;;;;;;;-5.81;85.35;99421.73;713803;1199;113740;-76
2021/12/25 04:15:18;;;;;;;18.00;4.60;;;;;;;-5.79;85.77;99435.27;713970;1200;115631;-76
2021/12/25 04:30:34;;;;;;;5.05;2.53;;;;;;;-6.04;85.40;99451.48;713933;1199;113803;-76
2021/12/25 05:16:21;;;;;;;19.18;4.68;;;;;;;-6.44;86.53;99499.55;714670;1177;113663;-78
2021/12/25 05:31:25;;;;;;;9.67;3.27;;;;;;;-6.51;86.43;99523.56;714746;1186;113729;-79
2021/12/25 05:46:27;;;;;;;12.63;3.58;;;;;;;-6.58;86.34;99534.85;714681;1200;114602;-77
2021/12/25 06:01:30;;;;;;;7.18;2.28;;;;;;;-6.62;86.89;99562.17;714700;1199;115332;-77
2021/12/25 06:16:33;;;;;;;11.17;6.23;;;;;;;-6.56;87.06;99572.20;714318;1203;113609;-77
2021/12/25 06:31:35;;;;;;;12.38;4.53;;;;;;;-6.52;86.83;99576.34;714640;1200;114554;-78
2021/12/25 06:46:38;;;;;;;13.90;4.80;;;;;;;-6.53;87.17;99607.84;714248;1200;114326;-78
2021/12/25 07:01:40;;;;;;;19.47;4.27;;;;;;;-6.52;87.23;99606.97;714211;1199;113893;-76
2021/12/25 07:16:43;;;;;;;23.27;6.57;;;;;;;-6.36;87.37;99606.50;714003;1200;114891;-77
2021/12/25 07:31:45;;;;;;;21.38;7.55;;;;;;;-6.16;87.73;99633.17;714134;1199;115500;-76
2021/12/25 07:46:48;;;;;;;24.83;7.53;;;;;;;-5.93;87.49;99632.45;714563;1199;114754;-76
2021/12/25 08:01:50;;;;;;;23.70;8.75;;;;;;;-5.79;87.25;99645.64;714259;1199;113519;-76
2021/12/25 08:16:58;;;;;;;70.55;21.33;;;;;;;-5.51;87.88;99667.78;714217;1200;113901;-75
2021/12/25 08:32:00;;;;;;;17.08;7.73;;;;;;;-4.82;88.28;99682.57;714002;1174;114548;-75
2021/12/25 08:47:05;;;;;;;165.65;38.90;;;;;;;-4.05;87.27;99691.80;714267;1202;114249;-71
2021/12/25 09:02:12;;;;;;;42.50;15.77;;;;;;;-3.65;86.25;99700.55;714414;1199;114824;-73
2021/12/25 09:17:14;;;;;;;33.95;13.33;;;;;;;-2.94;84.97;99719.98;714387;1199;114589;-74
2021/12/25 09:32:17;;;;;;;48.55;15.45;;;;;;;-2.27;84.40;99718.02;714243;1200;115722;-74
2021/12/25 09:47:19;;;;;;;1016.75;303.78;;;;;;;-1.45;82.07;99734.89;714296;1175;114972;-70
2021/12/25 10:02:22;;;;;;;1279.83;429.90;;;;;;;-1.12;78.47;99735.05;714387;1202;116519;-72
2021/12/25 10:17:28;;;;;;;505.43;144.95;;;;;;;-0.70;78.65;99753.59;714338;1199;115103;-70
2021/12/25 10:32:31;;;;;;;249.65;78.63;;;;;;;-0.48;74.96;99749.96;715412;1200;114374;-79
2021/12/25 10:47:33;;;;;;;122.53;40.20;;;;;;;0.16;74.45;99744.02;714632;1199;114897;-77
2021/12/25 11:02:41;;;;;;;208.63;73.00;;;;;;;0.79;72.32;99724.27;714378;1174;113999;-78
2021/12/25 11:17:50;;;;;;;132.03;55.50;;;;;;;1.22;70.84;99720.97;714232;1202;113889;-76
2021/12/25 11:32:54;;;;;;;50.50;21.30;;;;;;;1.33;68.00;99717.75;714378;1199;114345;-77
2021/12/25 11:48:00;;;;;;;70.67;18.43;;;;;;;1.39;66.10;99716.58;714244;1202;115599;-77
2021/12/25 12:03:05;;;;;;;45.23;18.25;;;;;;;0.53;66.91;99701.64;714383;1200;113780;-77
2021/12/25 12:18:25;;;;;;;40.07;14.80;;;;;;;0.05;65.34;99711.98;714397;1200;115441;-78
2021/12/25 12:33:43;;;;;;;36.93;13.50;;;;;;;-0.23;65.32;99722.00;714407;1187;114622;-72
2021/12/25 12:49:08;;;;;;;139.70;40.85;;;;;;;-0.40;65.97;99755.55;715644;1177;113920;-74
2021/12/25 13:04:12;;;;;;;413.65;115.68;;;;;;;-0.35;66.59;99777.59;714680;1202;114893;-72
2021/12/25 13:19:14;;;;;;;85.80;29.75;;;;;;;-0.81;65.83;99779.89;714936;1199;114722;-77
2021/12/25 13:34:23;;;;;;;35.50;14.45;;;;;;;-0.06;65.37;99807.97;714217;1200;114118;-76
2021/12/25 13:49:35;;;;;;;33.43;12.60;;;;;;;-1.45;67.11;99814.66;714592;1199;114414;-75
2021/12/25 14:04:40;;;;;;;32.10;11.50;;;;;;;-1.94;67.95;99833.97;714986;1202;114331;-76
2021/12/25 14:19:43;;;;;;;30.25;10.95;;;;;;;-2.33;69.20;99816.77;714256;1176;114025;-72
2021/12/25 14:34:45;;;;;;;106.80;30.45;;;;;;;-2.73;70.63;99826.11;714878;1177;114040;-75
2021/12/25 14:49:50;;;;;;;62.98;18.65;;;;;;;-3.00;71.47;99844.28;714414;1183;114644;-75
2021/12/25 15:04:54;;;;;;;44.38;14.78;;;;;;;-3.25;72.69;99841.83;714573;1177;113965;-74
2021/12/25 15:20:04;;;;;;;42.90;13.90;;;;;;;-3.47;73.46;99849.48;714790;1202;115184;-72
2021/12/25 15:35:10;;;;;;;47.63;15.47;;;;;;;-3.65;74.28;99868.97;714547;1200;114543;-73
2021/12/25 15:50:17;;;;;;;43.30;13.93;;;;;;;-3.80;74.61;99872.89;715152;1200;114489;-72
2021/12/25 16:05:19;;;;;;;41.33;15.63;;;;;;;-3.94;75.20;99881.08;717987;1177;115432;-72
2021/12/25 16:20:22;;;;;;;65.45;22.95;;;;;;;-4.13;75.92;99886.83;717151;1174;113952;-72
2021/12/25 16:35:24;;;;;;;58.30;25.25;;;;;;;-4.22;76.72;99895.66;715385;1199;114519;-73
2021/12/25 16:50:27;;;;;;;42.70;16.20;;;;;;;-4.41;77.33;99922.75;715983;1203;115628;-73
2021/12/25 17:05:30;;;;;;;80.58;28.38;;;;;;;-4.57;77.08;99923.22;714422;1200;113865;-74
2021/12/25 17:20:35;;;;;;;46.98;17.65;;;;;;;-4.68;77.90;99917.62;714427;1200;114781;-73
2021/12/25 17:35:38;;;;;;;47.90;15.08;;;;;;;-4.81;78.05;99936.80;714267;1175;113949;-75
2021/12/25 17:50:41;;;;;;;30.80;11.20;;;;;;;-4.98;78.59;99945.80;714305;1178;114370;-74
2021/12/25 18:05:45;;;;;;;42.28;14.65;;;;;;;-5.11;79.63;99955.55;715615;1200;114264;-73
2021/12/25 18:20:48;;;;;;;54.03;17.88;;;;;;;-5.35;79.71;99954.53;714867;1202;115658;-73
2021/12/25 18:35:50;;;;;;;176.93;48.08;;;;;;;-5.35;79.79;99982.66;731533;1199;116925;-75
2021/12/25 18:50:53;;;;;;;58.37;20.10;;;;;;;-5.50;80.85;99986.47;715508;1178;114562;-79
2021/12/25 19:06:00;;;;;;;115.63;30.58;;;;;;;-5.52;81.51;99988.22;715021;1200;113900;-77
2021/12/25 19:21:03;;;;;;;97.88;30.10;;;;;;;-5.70;82.12;99990.38;714360;1175;114273;-73
2021/12/25 19:36:07;;;;;;;45.30;17.68;;;;;;;-5.80;82.16;99988.94;714862;1178;113900;-76
2021/12/25 19:51:11;;;;;;;55.18;16.35;;;;;;;-5.84;82.55;99984.78;714430;1200;114392;-74
2021/12/25 20:06:16;;;;;;;31.13;11.73;;;;;;;-5.89;82.33;100002.77;715305;1178;115503;-76
2021/12/25 20:21:21;;;;;;;52.28;15.43;;;;;;;-5.96;82.76;100006.37;714639;1204;114014;-73
2021/12/25 20:36:24;;;;;;;27.70;9.98;;;;;;;-5.99;82.29;100009.04;714601;1199;113807;-75
2021/12/25 20:51:27;;;;;;;141.60;42.35;;;;;;;-5.98;82.51;100007.31;715136;1203;113850;-75
2021/12/25 21:06:30;;;;;;;132.87;36.77;;;;;;;-6.12;82.89;100015.29;714806;1199;115440;-74
2021/12/25 21:21:33;;;;;;;60.20;19.53;;;;;;;-6.30;82.81;100022.52;714632;1199;114290;-74
2021/12/25 21:36:35;;;;;;;90.93;24.43;;;;;;;-6.13;83.12;100028.96;714756;1199;114477;-75
2021/12/25 21:51:38;;;;;;;78.30;20.70;;;;;;;-6.26;83.08;100023.29;715024;1199;114227;-75
2021/12/25 22:06:43;;;;;;;42.73;13.70;;;;;;;-6.30;83.44;100025.06;714793;1200;114172;-74
2021/12/25 22:21:45;;;;;;;48.83;20.30;;;;;;;-6.42;83.51;100027.91;714395;1199;114583;-74
2021/12/25 22:36:51;;;;;;;38.97;17.03;;;;;;;-6.41;83.99;100050.84;714617;1177;114640;-74
2021/12/25 22:51:54;;;;;;;28.93;13.10;;;;;;;-6.50;83.70;100045.94;714437;1176;114645;-75
2021/12/25 23:06:56;;;;;;;35.43;13.05;;;;;;;-6.57;84.16;100045.23;715035;1177;115114;-75
2021/12/25 23:21:59;;;;;;;26.57;10.43;;;;;;;-6.60;84.52;100047.86;714266;1174;114103;-75
2021/12/25 23:37:01;;;;;;;18.33;8.53;;;;;;;-6.73;84.69;100039.61;714301;1199;114136;-74
2021/12/25 23:52:04;;;;;;;26.38;11.00;;;;;;;-6.77;84.61;100043.11;714414;1199;114888;-74
